Goodsoil, Canada
Current Conditions -  °F | °C
As of 3:00 PM on Monday 22 Dec 2014 (Local Time) from CYOD Reporting Station
Overcast Overcast  
Wind Chill: 19°   Ceiling: 2200
Heat Index: 25°   Visibility: 12mi
Dew Point: 23°   Wind: 5mph
Humidity: 93%   Direction: 270°W
Pressure: 29.85"   Gusts: NA
Location:  54.4°N, 109.23°W
Report Text: CYOD 222100Z 27004KT 12SM FEW012 OVC022 M04/M05 A2985 RMKCF1SC7 SLP144
Loading
Personal Weather Stations






























Interactive Weather Map New forecast layout! Learn more

10-Day Weather Forecast

Advertisements
Track Severe Weather on mobile